Time;durP1;ratioP1;P1;durP2;ratioP2;P2;SDS_P1;SDS_P2;PMS_P1;PMS_P2;Temp;Humidity;BMP_temperature;BMP_pressure;BME280_temperature;BME280_humidity;BME280_pressure;Samples;Min_cycle;Max_cycle;Signal;HPM_P1;HPM_P2
2021/12/09 00:01:50;;;;;;;37.83;15.98;;;;;;;2.40;100.00;97569.38;5064216;28;20032;-66
2021/12/09 00:04:24;;;;;;;37.42;13.02;;;;;;;2.30;100.00;97573.72;5064283;28;20253;-66
2021/12/09 00:06:50;;;;;;;31.55;11.30;;;;;;;2.29;100.00;97572.00;5063998;28;20017;-66
2021/12/09 00:09:19;;;;;;;21.80;8.52;;;;;;;2.28;100.00;97566.81;5064382;28;20040;-66
2021/12/09 00:11:46;;;;;;;22.70;7.38;;;;;;;2.29;100.00;97574.59;5064377;28;20025;-66
2021/12/09 00:14:24;;;;;;;17.73;6.97;;;;;;;2.27;100.00;97568.53;5064205;28;20088;-66
2021/12/09 00:17:09;;;;;;;15.15;6.30;;;;;;;2.29;100.00;97572.00;5064018;28;20029;-66
2021/12/09 00:20:00;;;;;;;16.85;6.75;;;;;;;2.23;100.00;97574.63;5064028;28;20083;-66
2021/12/09 00:22:27;;;;;;;17.60;5.93;;;;;;;2.16;100.00;97571.16;5064033;28;20190;-66
2021/12/09 00:24:53;;;;;;;16.10;5.97;;;;;;;2.18;100.00;97573.75;5063835;28;20020;-66
2021/12/09 00:27:18;;;;;;;16.08;5.97;;;;;;;2.17;100.00;97580.69;5063919;28;20020;-66
2021/12/09 00:29:44;;;;;;;14.13;5.30;;;;;;;2.26;100.00;97582.41;5063673;28;20028;-66
2021/12/09 00:32:09;;;;;;;14.40;6.28;;;;;;;2.35;100.00;97584.97;5063446;28;20020;-66
2021/12/09 00:34:37;;;;;;;16.63;5.78;;;;;;;2.46;100.00;97583.16;5063401;28;20025;-66
2021/12/09 00:37:22;;;;;;;21.23;5.85;;;;;;;2.47;100.00;97584.91;5063472;28;20025;-66
2021/12/09 00:39:52;;;;;;;15.07;6.13;;;;;;;2.53;100.00;97584.84;5063579;28;20366;-66
2021/12/09 00:42:24;;;;;;;19.80;5.63;;;;;;;2.60;100.00;97594.38;5063227;28;20016;-66
2021/12/09 00:44:51;;;;;;;13.13;5.82;;;;;;;2.58;100.00;97590.03;5055340;28;20037;-66
2021/12/09 00:47:17;;;;;;;14.85;6.60;;;;;;;2.67;100.00;97585.66;5063469;28;20025;-66
2021/12/09 00:49:43;;;;;;;17.85;6.22;;;;;;;2.68;100.00;97587.38;5063264;28;20289;-66
2021/12/09 00:52:09;;;;;;;18.80;5.88;;;;;;;2.65;100.00;97587.41;5063387;28;20337;-66
2021/12/09 00:54:47;;;;;;;13.77;5.45;;;;;;;2.73;100.00;97590.84;5063206;28;20032;-66
2021/12/09 00:57:13;;;;;;;21.25;7.45;;;;;;;2.82;100.00;97585.59;5063221;28;20024;-66
2021/12/09 00:59:39;;;;;;;15.70;6.15;;;;;;;2.89;100.00;97581.22;5063269;28;20325;-66
2021/12/09 01:02:04;;;;;;;19.15;5.85;;;;;;;2.88;100.00;97590.72;5063172;28;20040;-66
2021/12/09 01:04:30;;;;;;;20.63;6.50;;;;;;;2.85;100.00;97588.16;5063228;28;20321;-66
2021/12/09 01:06:55;;;;;;;16.58;5.32;;;;;;;2.88;100.00;97585.53;5063060;28;20108;-66
2021/12/09 01:09:21;;;;;;;18.77;6.00;;;;;;;2.92;100.00;97591.59;5063252;28;20020;-66
2021/12/09 01:11:46;;;;;;;17.70;6.82;;;;;;;2.87;100.00;97591.59;5063194;28;20025;-66
2021/12/09 01:14:11;;;;;;;12.80;5.95;;;;;;;2.87;100.00;97589.00;5062982;28;20021;-66
2021/12/09 01:16:37;;;;;;;18.25;6.75;;;;;;;2.74;100.00;97589.97;5064212;28;20055;-66
2021/12/09 01:19:05;;;;;;;18.88;7.25;;;;;;;2.73;100.00;97589.97;5066754;28;20049;-66
2021/12/09 01:21:31;;;;;;;22.55;7.15;;;;;;;2.71;100.00;97591.69;5066953;28;20082;-66
2021/12/09 01:23:56;;;;;;;24.48;8.13;;;;;;;2.70;100.00;97590.84;5066796;28;20024;-66
2021/12/09 01:26:23;;;;;;;20.50;7.22;;;;;;;2.71;100.00;97595.16;5067164;28;20228;-66
2021/12/09 01:28:54;;;;;;;22.92;8.07;;;;;;;2.75;100.00;97593.44;5066767;28;20336;-66
2021/12/09 01:31:34;;;;;;;18.75;7.70;;;;;;;2.74;100.00;97587.34;5066998;28;20024;-66
2021/12/09 01:34:02;;;;;;;25.40;8.15;;;;;;;2.61;100.00;97601.28;5067005;28;20029;-66
2021/12/09 01:36:29;;;;;;;18.33;7.40;;;;;;;2.43;100.00;97585.78;5066772;28;20035;-66
2021/12/09 01:38:55;;;;;;;16.63;6.10;;;;;;;2.47;100.00;97584.91;5066634;28;20066;-66
2021/12/09 01:41:20;;;;;;;18.52;6.70;;;;;;;2.53;100.00;97597.84;5066654;28;20041;-66
2021/12/09 01:43:46;;;;;;;22.23;6.25;;;;;;;2.44;100.00;97590.13;5066462;28;20031;-66
2021/12/09 01:46:15;;;;;;;13.60;5.32;;;;;;;2.43;100.00;97596.16;5066399;28;20035;-66
2021/12/09 01:48:43;;;;;;;18.95;6.47;;;;;;;2.34;100.00;97601.38;5066407;28;20083;-66
2021/12/09 01:51:10;;;;;;;21.95;7.20;;;;;;;2.25;100.00;97604.88;5066400;28;20029;-66
2021/12/09 01:53:36;;;;;;;11.35;5.55;;;;;;;2.29;100.00;97597.97;5066238;28;20033;-66
2021/12/09 01:56:05;;;;;;;11.25;5.45;;;;;;;2.26;100.00;97605.75;5066326;28;20025;-66
2021/12/09 01:58:31;;;;;;;15.20;6.40;;;;;;;2.25;100.00;97609.22;5066215;28;20021;-66
2021/12/09 02:00:57;;;;;;;15.88;6.35;;;;;;;2.19;100.00;97612.69;5066145;28;20221;-66
2021/12/09 02:03:23;;;;;;;10.95;5.32;;;;;;;2.09;100.00;97611.00;5066094;28;20046;-67
2021/12/09 02:05:49;;;;;;;13.50;6.00;;;;;;;2.03;100.00;97610.16;5066138;28;20028;-67
2021/12/09 02:08:15;;;;;;;16.08;5.85;;;;;;;1.96;100.00;97614.47;5065960;28;20042;-67
2021/12/09 02:10:43;;;;;;;13.80;5.82;;;;;;;1.90;100.00;97608.47;5066105;28;20317;-67
2021/12/09 02:13:09;;;;;;;17.40;6.32;;;;;;;1.78;100.00;97609.31;5065886;28;20024;-67
2021/12/09 02:15:35;;;;;;;12.48;5.00;;;;;;;1.65;100.00;97606.75;5065694;28;20029;-67
2021/12/09 02:18:06;;;;;;;15.13;4.80;;;;;;;1.57;100.00;97613.66;5065408;28;20040;-67
2021/12/09 02:20:37;;;;;;;16.77;5.35;;;;;;;1.53;100.00;97612.81;5065848;28;20031;-67
2021/12/09 02:23:09;;;;;;;11.48;5.03;;;;;;;1.51;100.00;97613.66;5065962;28;20020;-67
2021/12/09 02:25:36;;;;;;;13.82;5.65;;;;;;;1.50;100.00;97606.78;5065838;28;20013;-67
2021/12/09 02:28:03;;;;;;;19.15;6.25;;;;;;;1.46;100.00;97611.06;5065191;28;20063;-67
2021/12/09 02:30:29;;;;;;;18.50;6.50;;;;;;;1.57;100.00;97619.72;5065733;28;20087;-67
2021/12/09 02:32:54;;;;;;;12.48;5.80;;;;;;;1.75;100.00;97624.03;5065518;28;20028;-67
2021/12/09 02:35:20;;;;;;;13.73;6.13;;;;;;;1.88;100.00;97625.75;5065685;28;20366;-67
2021/12/09 02:37:45;;;;;;;15.48;5.75;;;;;;;1.93;100.00;97629.22;5065405;28;20024;-67
2021/12/09 02:40:12;;;;;;;21.42;6.20;;;;;;;2.02;100.00;97627.44;5065429;28;20037;-67
2021/12/09 02:42:38;;;;;;;21.77;5.55;;;;;;;1.85;100.00;97629.22;5065605;28;20088;-67
2021/12/09 02:45:07;;;;;;;19.67;5.45;;;;;;;1.83;100.00;97622.28;5065677;28;20259;-67
2021/12/09 02:47:33;;;;;;;15.82;6.05;;;;;;;1.86;100.00;97619.69;5065911;28;20051;-67
2021/12/09 02:49:59;;;;;;;19.75;6.78;;;;;;;1.81;100.00;97624.88;5065536;28;20024;-67
2021/12/09 02:52:25;;;;;;;18.25;6.95;;;;;;;1.85;100.00;97636.13;5065114;28;20032;-67
2021/12/09 02:54:51;;;;;;;15.68;6.47;;;;;;;1.98;100.00;97640.44;5065238;28;20029;-67
2021/12/09 02:57:17;;;;;;;18.23;6.13;;;;;;;2.03;100.00;97642.13;5065002;28;20228;-67
2021/12/09 02:59:43;;;;;;;12.77;6.35;;;;;;;1.98;100.00;97628.31;5065462;28;20305;-67
2021/12/09 03:02:10;;;;;;;17.67;7.80;;;;;;;2.06;100.00;97646.47;5065406;28;20075;-67
2021/12/09 03:04:44;;;;;;;18.98;8.13;;;;;;;2.17;100.00;97642.13;5064841;28;20020;-67
2021/12/09 03:07:25;;;;;;;22.88;7.95;;;;;;;2.31;100.00;97640.34;5057799;28;20062;-67
2021/12/09 03:10:00;;;;;;;19.85;9.30;;;;;;;2.33;100.00;97636.00;5065316;28;20036;-67
2021/12/09 03:12:35;;;;;;;26.88;10.77;;;;;;;2.38;100.00;97634.28;5065434;28;20075;-67
2021/12/09 03:15:02;;;;;;;21.27;11.27;;;;;;;2.50;100.00;97639.41;5065210;28;20053;-67
2021/12/09 03:17:28;;;;;;;23.00;10.82;;;;;;;2.51;100.00;97641.16;5064969;28;20055;-67
2021/12/09 03:19:54;;;;;;;34.20;12.75;;;;;;;2.56;100.00;97649.78;5064280;28;20033;-67
2021/12/09 03:22:20;;;;;;;26.27;12.45;;;;;;;2.64;100.00;97650.63;5064701;28;20021;-67
2021/12/09 03:24:47;;;;;;;31.33;12.45;;;;;;;2.65;100.00;97665.31;5064524;28;20067;-67
2021/12/09 03:27:12;;;;;;;28.33;13.80;;;;;;;2.73;100.00;97657.50;5064576;28;20063;-67
2021/12/09 03:29:39;;;;;;;23.05;11.40;;;;;;;2.78;100.00;97656.59;5064649;28;20076;-67
2021/12/09 03:32:09;;;;;;;23.77;12.57;;;;;;;2.84;100.00;97672.16;5064613;28;20031;-67
2021/12/09 03:34:35;;;;;;;28.75;12.65;;;;;;;2.91;100.00;97678.22;5064423;28;20033;-67
2021/12/09 03:37:04;;;;;;;29.23;12.80;;;;;;;2.80;100.00;97669.59;5064323;28;20079;-67
2021/12/09 03:39:34;;;;;;;33.63;12.70;;;;;;;2.86;100.00;97675.63;5064554;28;20092;-67
2021/12/09 03:42:00;;;;;;;29.20;12.00;;;;;;;2.88;100.00;97684.28;5064222;28;20027;-67
2021/12/09 03:44:28;;;;;;;30.27;13.00;;;;;;;2.90;100.00;97676.47;5064157;28;20264;-67
2021/12/09 03:46:55;;;;;;;35.67;13.80;;;;;;;2.90;100.00;97682.53;5064518;28;20017;-67
2021/12/09 03:49:21;;;;;;;31.42;14.18;;;;;;;2.96;100.00;97692.91;5064146;28;20021;-67
2021/12/09 03:51:46;;;;;;;33.95;14.48;;;;;;;2.97;100.00;97689.44;5064047;28;20055;-67
2021/12/09 03:54:12;;;;;;;34.35;15.48;;;;;;;2.97;100.00;97694.63;5064169;28;20225;-67
2021/12/09 03:56:39;;;;;;;40.58;15.45;;;;;;;2.96;100.00;97698.09;5064362;28;20040;-67
2021/12/09 03:59:07;;;;;;;33.50;15.77;;;;;;;3.01;100.00;97706.72;5064365;28;20329;-67
2021/12/09 04:01:34;;;;;;;39.78;15.55;;;;;;;2.88;100.00;97710.25;5064273;28;20216;-67
2021/12/09 04:04:00;;;;;;;38.60;16.90;;;;;;;2.92;100.00;97716.31;5063985;28;20013;-67
2021/12/09 04:06:29;;;;;;;41.25;17.52;;;;;;;2.98;100.00;97717.16;5064197;28;20033;-67
2021/12/09 04:08:54;;;;;;;33.28;17.92;;;;;;;3.05;100.00;97711.06;5064186;28;20052;-67
2021/12/09 04:11:20;;;;;;;42.00;17.48;;;;;;;3.04;100.00;97708.47;5064164;28;20051;-67
2021/12/09 04:13:46;;;;;;;49.13;18.50;;;;;;;3.06;100.00;97723.19;5064004;28;20216;-67
2021/12/09 04:16:11;;;;;;;32.67;17.05;;;;;;;3.13;100.00;97717.06;5064045;28;20032;-67
2021/12/09 04:18:39;;;;;;;49.60;18.63;;;;;;;3.09;100.00;97717.97;5063723;28;20044;-67
2021/12/09 04:21:06;;;;;;;43.17;17.33;;;;;;;3.07;100.00;97732.69;5063909;28;20091;-67
2021/12/09 04:23:33;;;;;;;44.97;17.13;;;;;;;2.97;100.00;97720.63;5064236;28;20080;-67
2021/12/09 04:25:59;;;;;;;49.60;18.80;;;;;;;2.94;100.00;97719.78;5063927;28;20091;-67
2021/12/09 04:28:24;;;;;;;39.03;17.95;;;;;;;2.97;100.00;97725.81;5063932;28;20032;-67
2021/12/09 04:30:50;;;;;;;36.65;17.52;;;;;;;2.99;100.00;97729.28;5063874;28;20049;-67
2021/12/09 04:33:15;;;;;;;43.08;17.20;;;;;;;3.07;100.00;97732.69;5063770;28;20317;-67
2021/12/09 04:35:41;;;;;;;34.97;17.85;;;;;;;3.11;100.00;97738.75;5063832;28;20090;-67
2021/12/09 04:38:06;;;;;;;40.35;18.45;;;;;;;3.10;100.00;97740.47;5063759;28;20024;-67
2021/12/09 04:40:32;;;;;;;39.25;18.23;;;;;;;3.07;100.00;97734.44;5063785;28;20364;-67
2021/12/09 04:42:57;;;;;;;40.65;17.45;;;;;;;3.12;100.00;97736.16;5063740;28;20049;-67
2021/12/09 04:45:23;;;;;;;37.47;17.45;;;;;;;3.16;100.00;97732.66;5063648;28;20066;-67
2021/12/09 04:47:48;;;;;;;39.42;16.65;;;;;;;3.15;100.00;97740.47;5063483;28;20074;-67
2021/12/09 04:50:14;;;;;;;35.00;16.48;;;;;;;3.24;100.00;97735.22;5063533;28;20320;-67
2021/12/09 04:52:40;;;;;;;42.92;17.92;;;;;;;3.21;100.00;97736.13;5066719;28;20025;-67
2021/12/09 04:55:07;;;;;;;33.40;15.80;;;;;;;3.29;100.00;97733.47;5067682;28;20202;-67
2021/12/09 04:57:33;;;;;;;36.53;16.20;;;;;;;3.32;100.00;97734.31;5067760;28;20029;-67
2021/12/09 04:59:59;;;;;;;43.40;16.50;;;;;;;3.27;99.81;97736.09;5067472;28;20074;-67
2021/12/09 05:02:46;;;;;;;32.40;15.82;;;;;;;3.34;99.96;97732.56;5067633;28;20245;-67
2021/12/09 05:05:12;;;;;;;36.80;16.58;;;;;;;3.37;99.63;97750.75;5067541;28;20025;-67
2021/12/09 05:07:37;;;;;;;44.78;17.05;;;;;;;3.35;100.00;97741.25;5067598;28;20025;-67
2021/12/09 05:10:04;;;;;;;39.95;16.05;;;;;;;3.41;99.73;97739.47;5067459;28;20021;-67
2021/12/09 05:12:29;;;;;;;31.23;15.20;;;;;;;3.41;99.72;97733.38;5067512;28;20025;-67
2021/12/09 05:14:55;;;;;;;41.22;15.52;;;;;;;3.38;99.31;97739.47;5067367;28;20221;-67
2021/12/09 05:17:21;;;;;;;40.60;18.50;;;;;;;3.32;100.00;97730.88;5067093;28;20033;-67
2021/12/09 05:19:46;;;;;;;47.63;19.27;;;;;;;3.34;99.70;97732.56;5067644;28;20028;-67
2021/12/09 05:22:12;;;;;;;36.95;17.23;;;;;;;3.29;99.77;97739.53;5067291;28;20340;-67
2021/12/09 05:24:38;;;;;;;39.38;16.70;;;;;;;3.30;100.00;97738.69;5067493;28;20017;-67
2021/12/09 05:27:05;;;;;;;40.75;18.27;;;;;;;3.27;99.88;97741.28;5067196;28;20017;-67
2021/12/09 05:29:38;;;;;;;34.30;16.67;;;;;;;3.34;100.00;97742.97;5067146;28;20028;-67
2021/12/09 05:32:08;;;;;;;46.22;17.23;;;;;;;3.34;100.00;97744.69;5067383;28;20194;-67
2021/12/09 05:34:42;;;;;;;41.20;17.20;;;;;;;3.35;99.74;97747.31;5067238;28;20031;-67
2021/12/09 05:37:12;;;;;;;45.22;16.80;;;;;;;3.35;99.98;97749.91;5067055;28;20316;-67
2021/12/09 05:39:39;;;;;;;44.45;17.23;;;;;;;3.41;100.00;97755.06;5066965;28;20088;-67
2021/12/09 05:42:06;;;;;;;49.72;18.20;;;;;;;3.37;99.63;97762.91;5066913;28;20032;-67
2021/12/09 05:44:33;;;;;;;48.50;19.10;;;;;;;3.34;100.00;97761.19;5066911;28;20032;-67
2021/12/09 05:47:00;;;;;;;43.70;18.92;;;;;;;3.39;100.00;97767.22;5066828;28;20024;-67
2021/12/09 05:49:25;;;;;;;46.15;19.08;;;;;;;3.38;99.82;97775.88;5066812;28;20087;-67
2021/12/09 05:51:51;;;;;;;53.35;20.05;;;;;;;3.31;100.00;97769.00;5066472;28;20311;-67
2021/12/09 05:54:17;;;;;;;55.00;18.75;;;;;;;3.23;100.00;97770.75;5066519;28;20131;-67
2021/12/09 05:56:42;;;;;;;50.55;19.58;;;;;;;3.26;100.00;97770.75;5066645;28;20031;-67
2021/12/09 05:59:09;;;;;;;51.35;17.63;;;;;;;3.28;100.00;97771.59;5066553;28;20021;-67
2021/12/09 06:01:37;;;;;;;44.78;17.05;;;;;;;3.30;100.00;97777.69;5066554;28;20017;-67
2021/12/09 06:04:03;;;;;;;38.30;15.90;;;;;;;3.33;100.00;97766.41;5065048;28;20043;-67
2021/12/09 06:06:28;;;;;;;41.05;14.40;;;;;;;3.26;100.00;97765.53;5066379;28;20025;-67
2021/12/09 06:08:54;;;;;;;42.90;16.63;;;;;;;3.24;99.70;97764.69;5066471;28;20040;-67
2021/12/09 06:11:19;;;;;;;40.03;14.82;;;;;;;3.22;99.97;97774.22;5066597;28;20017;-67
2021/12/09 06:13:46;;;;;;;43.00;16.02;;;;;;;3.13;100.00;97769.06;5065650;28;20375;-67
2021/12/09 06:16:12;;;;;;;41.97;14.50;;;;;;;3.14;99.90;97770.81;5066262;28;20020;-67
2021/12/09 06:18:37;;;;;;;39.53;16.30;;;;;;;3.12;100.00;97772.56;5066031;28;20143;-67
2021/12/09 06:21:03;;;;;;;40.00;15.70;;;;;;;3.16;100.00;97773.41;5066164;28;20025;-67
2021/12/09 06:23:28;;;;;;;31.33;14.32;;;;;;;3.19;100.00;97773.38;5066140;28;20024;-67
2021/12/09 06:25:54;;;;;;;32.45;14.68;;;;;;;3.18;100.00;97775.13;5065866;28;20048;-67
2021/12/09 06:28:19;;;;;;;34.45;14.30;;;;;;;3.27;99.61;97776.81;5066116;28;20186;-67
2021/12/09 06:30:46;;;;;;;26.25;12.95;;;;;;;3.24;100.00;97782.91;5066003;28;20032;-67
2021/12/09 06:33:12;;;;;;;39.13;14.95;;;;;;;3.18;99.79;97772.53;5065661;28;20027;-66
2021/12/09 06:35:39;;;;;;;32.28;14.52;;;;;;;3.19;99.66;97779.44;5065899;28;20021;-66
2021/12/09 06:38:08;;;;;;;49.28;17.88;;;;;;;3.23;100.00;97783.75;5062498;28;20020;-65
2021/12/09 06:40:33;;;;;;;41.47;16.77;;;;;;;3.12;100.00;97782.94;5065416;28;20028;-65
2021/12/09 06:42:59;;;;;;;37.83;16.38;;;;;;;3.16;100.00;97789.84;5064929;28;20229;-66
2021/12/09 06:45:24;;;;;;;37.70;15.02;;;;;;;3.18;99.42;97788.13;5065299;28;20025;-66
2021/12/09 06:47:50;;;;;;;35.97;15.90;;;;;;;3.11;100.00;97786.44;5065768;28;20272;-66
2021/12/09 06:50:18;;;;;;;36.03;15.98;;;;;;;3.04;99.89;97789.06;5065644;28;20035;-66
2021/12/09 06:52:43;;;;;;;33.30;13.75;;;;;;;3.03;100.00;97798.56;5065524;28;20025;-66
2021/12/09 06:55:12;;;;;;;29.58;13.40;;;;;;;3.02;99.71;97795.97;5065466;28;20025;-66
2021/12/09 06:57:44;;;;;;;28.92;14.20;;;;;;;2.98;99.95;97795.13;5065511;28;20043;-66
2021/12/09 07:00:12;;;;;;;;;;;;;;;2.89;100.00;97802.97;5065962;28;20324;-66
2021/12/09 07:02:37;;;;;;;28.85;13.45;;;;;;;2.85;100.00;97811.59;5065385;28;19951;-66
2021/12/09 07:05:05;;;;;;;26.83;13.50;;;;;;;2.91;100.00;97813.34;5065264;28;20270;-66
2021/12/09 07:07:30;;;;;;;35.45;15.45;;;;;;;2.88;100.00;97822.00;5065324;28;20028;-66
2021/12/09 07:09:56;;;;;;;40.72;16.23;;;;;;;2.94;100.00;97834.13;5065519;28;20021;-66
2021/12/09 07:12:21;;;;;;;39.22;15.40;;;;;;;2.94;100.00;97829.78;5065213;28;20025;-66
2021/12/09 07:14:47;;;;;;;38.20;17.20;;;;;;;2.95;100.00;97841.94;5064750;28;20035;-66
2021/12/09 07:17:12;;;;;;;40.63;16.42;;;;;;;2.93;100.00;97846.25;5064964;28;20104;-66
2021/12/09 07:19:38;;;;;;;29.13;14.63;;;;;;;2.87;100.00;97854.06;5065084;28;20020;-66
2021/12/09 07:22:05;;;;;;;27.50;14.40;;;;;;;2.93;99.79;97856.66;5065042;28;20044;-66
2021/12/09 07:24:31;;;;;;;33.88;14.90;;;;;;;2.92;100.00;97867.91;5065223;28;20297;-66
2021/12/09 07:26:57;;;;;;;30.38;14.73;;;;;;;2.91;100.00;97871.38;5064932;28;20027;-66
2021/12/09 07:29:24;;;;;;;33.88;15.13;;;;;;;2.86;100.00;97878.31;5064920;28;20087;-66
2021/12/09 07:31:49;;;;;;;34.65;15.32;;;;;;;2.80;100.00;97880.94;5064914;28;20016;-66
2021/12/09 07:34:16;;;;;;;36.75;15.10;;;;;;;2.83;100.00;97888.72;5064713;28;20397;-66
2021/12/09 07:36:42;;;;;;;32.83;15.15;;;;;;;2.87;100.00;97887.84;5065020;28;20017;-66
2021/12/09 07:39:07;;;;;;;31.65;13.75;;;;;;;2.80;100.00;97891.31;5064924;28;20368;-66
2021/12/09 07:41:32;;;;;;;30.48;14.25;;;;;;;2.82;100.00;97892.19;5064652;28;20024;-66
2021/12/09 07:44:01;;;;;;;31.67;15.52;;;;;;;2.82;100.00;97897.38;5064616;28;20013;-66
2021/12/09 07:46:27;;;;;;;28.20;14.68;;;;;;;2.79;100.00;97897.41;5064812;28;20016;-66
2021/12/09 07:48:52;;;;;;;37.45;15.77;;;;;;;2.86;100.00;97899.09;5064592;28;20193;-66
2021/12/09 07:51:18;;;;;;;29.50;14.85;;;;;;;2.88;100.00;97906.91;5064547;28;20023;-66
2021/12/09 07:53:43;;;;;;;28.23;14.48;;;;;;;2.90;99.83;97905.16;5064357;28;20028;-66
2021/12/09 07:56:09;;;;;;;28.67;13.65;;;;;;;2.87;100.00;97906.03;5064656;28;20029;-66
2021/12/09 07:58:35;;;;;;;32.38;14.55;;;;;;;2.86;100.00;97906.91;5064295;28;20017;-66
2021/12/09 08:01:00;;;;;;;30.40;13.35;;;;;;;2.90;100.00;97908.63;5064549;28;20025;-66
2021/12/09 08:03:26;;;;;;;22.60;11.85;;;;;;;2.90;99.92;97911.22;5064244;28;20080;-66
2021/12/09 08:05:51;;;;;;;25.70;12.30;;;;;;;2.93;100.00;97910.34;5064262;28;20084;-66
2021/12/09 08:08:17;;;;;;;24.83;11.90;;;;;;;2.93;100.00;97921.63;5064247;28;20217;-66
2021/12/09 08:10:42;;;;;;;29.67;12.35;;;;;;;2.99;100.00;97916.41;5064150;28;20032;-66
2021/12/09 08:13:08;;;;;;;23.30;12.20;;;;;;;2.98;99.95;97919.91;5064018;28;20021;-66
2021/12/09 08:15:38;;;;;;;23.33;11.93;;;;;;;2.99;100.00;97910.34;5064122;28;20031;-66
2021/12/09 08:20:51;;;;;;;25.70;12.23;;;;;;;3.02;99.89;97928.53;5064414;28;20036;-66
2021/12/09 08:23:17;;;;;;;23.08;12.10;;;;;;;3.04;100.00;97930.25;5063990;28;20058;-66
2021/12/09 08:25:43;;;;;;;24.42;11.45;;;;;;;3.10;100.00;97922.44;5063478;28;20032;-66
2021/12/09 08:28:09;;;;;;;30.25;10.90;;;;;;;3.16;100.00;97906.84;5062619;28;20025;-66
2021/12/09 08:30:36;;;;;;;22.88;11.55;;;;;;;3.17;99.41;97906.00;5063885;28;20033;-66
2021/12/09 08:33:03;;;;;;;31.92;11.45;;;;;;;3.09;99.97;97907.72;5063562;28;20021;-66
2021/12/09 08:35:29;;;;;;;25.33;10.95;;;;;;;3.18;100.00;97912.91;5063969;28;20021;-66
2021/12/09 08:37:56;;;;;;;27.73;11.85;;;;;;;3.22;100.00;97917.25;5063458;28;20080;-64
2021/12/09 08:40:22;;;;;;;30.00;11.48;;;;;;;3.26;100.00;97921.56;5063849;28;20021;-65
2021/12/09 08:42:49;;;;;;;35.42;13.32;;;;;;;3.25;99.52;97913.75;5063616;28;20031;-65
2021/12/09 08:45:16;;;;;;;28.63;12.95;;;;;;;3.30;99.56;97915.50;5063762;28;20276;-65
2021/12/09 08:47:42;;;;;;;37.75;13.60;;;;;;;3.36;100.00;97928.47;5063753;28;20132;-65
2021/12/09 08:50:11;;;;;;;32.95;13.98;;;;;;;3.34;99.66;97917.22;5063666;28;20244;-65
2021/12/09 08:52:37;;;;;;;32.63;13.70;;;;;;;3.34;99.73;97917.22;5063954;28;20025;-65
2021/12/09 08:55:04;;;;;;;31.27;14.27;;;;;;;3.39;99.39;97912.84;5063630;28;20045;-65
2021/12/09 08:57:31;;;;;;;26.83;12.73;;;;;;;3.43;99.69;97912.00;5063654;28;20032;-65
2021/12/09 08:59:57;;;;;;;28.00;13.88;;;;;;;3.48;98.93;97912.84;5063585;28;20100;-65
2021/12/09 09:02:23;;;;;;;32.03;13.82;;;;;;;3.48;99.75;97910.22;5063571;28;20025;-65
2021/12/09 09:04:48;;;;;;;30.65;13.82;;;;;;;3.45;99.22;97907.63;5063504;28;20309;-65
2021/12/09 09:07:14;;;;;;;25.23;12.02;;;;;;;3.50;98.99;97916.31;5063562;28;20032;-65
2021/12/09 09:09:40;;;;;;;30.40;11.82;;;;;;;3.56;98.84;97911.09;5063536;28;20358;-65
2021/12/09 09:12:08;;;;;;;33.13;10.77;;;;;;;3.57;99.94;97918.00;5063515;28;20059;-65
2021/12/09 09:14:34;;;;;;;23.95;10.55;;;;;;;3.58;99.67;97914.53;5063376;28;20032;-65
2021/12/09 09:16:59;;;;;;;32.35;11.23;;;;;;;3.51;99.54;97917.19;5063291;28;20025;-65
2021/12/09 09:19:25;;;;;;;24.77;10.90;;;;;;;3.52;99.98;97918.91;5063729;28;20021;-65
2021/12/09 09:21:51;;;;;;;25.67;10.68;;;;;;;3.62;99.52;97931.88;5063430;28;20071;-65
2021/12/09 09:24:17;;;;;;;31.52;12.40;;;;;;;3.64;99.63;97937.91;5063390;28;20025;-65
2021/12/09 09:26:43;;;;;;;22.30;10.95;;;;;;;3.64;99.56;97934.47;5063373;28;20071;-65
2021/12/09 09:29:08;;;;;;;22.50;10.18;;;;;;;3.71;99.12;97937.06;5063338;28;20025;-65
2021/12/09 09:31:35;;;;;;;29.08;10.07;;;;;;;3.71;98.36;97930.97;5063338;28;20243;-65
2021/12/09 09:34:05;;;;;;;28.42;10.95;;;;;;;3.67;98.80;97940.50;5063249;28;20048;-65
2021/12/09 09:36:31;;;;;;;23.60;9.77;;;;;;;3.73;98.55;97937.03;5063282;28;20032;-65
2021/12/09 09:39:06;;;;;;;29.45;10.02;;;;;;;3.70;99.16;97943.09;5066450;28;20088;-65
2021/12/09 09:41:33;;;;;;;23.80;9.23;;;;;;;3.71;98.57;97937.06;5066957;28;20025;-65
2021/12/09 09:44:11;;;;;;;23.40;9.13;;;;;;;3.75;98.63;97943.97;5066887;28;20225;-65
2021/12/09 09:46:37;;;;;;;24.85;8.68;;;;;;;3.79;98.32;97935.28;5067122;28;20027;-65
2021/12/09 09:49:05;;;;;;;23.00;9.02;;;;;;;3.81;97.83;97938.75;5066805;28;20024;-65
2021/12/09 09:51:31;;;;;;;30.98;10.27;;;;;;;3.89;97.93;97934.34;5066986;28;20316;-65
2021/12/09 09:53:57;;;;;;;23.05;10.07;;;;;;;3.88;98.21;97930.03;5066652;28;20032;-65
2021/12/09 09:56:24;;;;;;;32.58;10.50;;;;;;;3.86;98.05;97936.97;5066693;28;20032;-65
2021/12/09 09:58:56;;;;;;;34.45;11.15;;;;;;;3.83;99.09;97942.19;5066714;28;20025;-65
2021/12/09 10:01:23;;;;;;;33.03;11.70;;;;;;;3.83;98.55;97936.97;5066671;28;20131;-65
2021/12/09 10:03:57;;;;;;;27.75;11.07;;;;;;;3.90;98.28;97943.88;5066532;28;20317;-65
2021/12/09 10:06:22;;;;;;;27.27;11.18;;;;;;;3.91;98.16;97943.03;5066464;28;20055;-65
2021/12/09 10:08:48;;;;;;;29.88;11.80;;;;;;;3.91;99.27;97935.22;5066479;28;20028;-65
2021/12/09 10:11:13;;;;;;;21.70;9.85;;;;;;;3.92;98.94;97929.13;5066406;28;20052;-65
2021/12/09 10:13:41;;;;;;;34.45;11.68;;;;;;;3.94;98.69;97919.59;5066252;28;20021;-65
2021/12/09 10:16:19;;;;;;;39.33;11.52;;;;;;;4.00;98.48;97924.78;5066290;28;20107;-65
2021/12/09 10:18:48;;;;;;;34.60;11.70;;;;;;;4.00;98.68;97914.38;5066134;28;20045;-65
2021/12/09 10:21:26;;;;;;;29.38;11.90;;;;;;;4.03;98.54;97916.94;5066222;28;20017;-65
2021/12/09 10:24:03;;;;;;;32.35;11.23;;;;;;;4.02;98.01;97915.19;5066159;28;20364;-65
2021/12/09 10:26:37;;;;;;;29.27;10.80;;;;;;;4.08;98.42;97922.09;5066049;28;20023;-65
2021/12/09 10:29:24;;;;;;;33.58;11.20;;;;;;;4.07;98.76;97923.88;5066071;28;20049;-65
2021/12/09 10:31:59;;;;;;;35.92;9.90;;;;;;;4.11;98.41;97930.78;5066095;28;20025;-65
2021/12/09 10:34:40;;;;;;;24.77;9.68;;;;;;;4.15;97.84;97929.88;5065860;28;20017;-65
2021/12/09 10:37:07;;;;;;;30.00;11.07;;;;;;;4.15;98.08;97931.63;5065909;28;20020;-65
2021/12/09 10:40:05;;;;;;;23.63;8.70;;;;;;;4.13;96.98;97926.44;5065882;28;20220;-65
2021/12/09 10:42:37;;;;;;;28.70;8.85;;;;;;;4.17;96.91;97933.34;5064107;28;20092;-65
2021/12/09 10:45:05;;;;;;;32.13;8.63;;;;;;;4.10;97.34;97925.56;5066073;28;20208;-65
2021/12/09 10:47:55;;;;;;;18.83;8.80;;;;;;;4.15;97.08;97924.69;5065713;28;20362;-65
2021/12/09 10:50:53;;;;;;;23.55;9.07;;;;;;;4.16;97.18;97921.22;5065001;28;20021;-65
2021/12/09 10:55:50;;;;;;;20.67;9.13;;;;;;;4.20;97.38;97911.63;5065579;28;20348;-65
2021/12/09 10:58:19;;;;;;;27.38;8.93;;;;;;;4.03;96.78;97919.56;5065809;28;20020;-65
2021/12/09 11:00:54;;;;;;;21.88;8.77;;;;;;;4.16;96.87;97916.00;5065461;28;20267;-65
2021/12/09 11:03:24;;;;;;;21.85;8.93;;;;;;;4.18;96.54;97916.84;5065212;28;20020;-65
2021/12/09 11:05:57;;;;;;;24.23;8.25;;;;;;;4.11;96.66;97917.75;5068675;28;20025;-65
2021/12/09 11:08:44;;;;;;;25.27;9.00;;;;;;;4.14;96.98;97922.06;5071796;28;20021;-65
2021/12/09 11:11:33;;;;;;;33.13;8.88;;;;;;;4.25;96.49;97915.94;5073186;28;20029;-65
2021/12/09 11:14:14;;;;;;;33.38;8.73;;;;;;;4.25;96.37;97918.53;5075449;28;20036;-65
2021/12/09 11:16:43;;;;;;;21.23;8.32;;;;;;;4.33;96.33;97924.56;5075761;28;20040;-65
2021/12/09 11:19:14;;;;;;;21.98;8.10;;;;;;;4.37;95.98;97915.84;5064831;28;20040;-65
2021/12/09 11:21:44;;;;;;;22.52;7.57;;;;;;;4.29;96.38;97908.97;5063418;28;20036;-65
2021/12/09 11:24:12;;;;;;;22.83;7.53;;;;;;;4.26;96.47;97909.00;5069365;28;20024;-65
2021/12/09 11:29:23;;;;;;;31.90;8.80;;;;;;;4.39;96.24;97903.69;5073969;28;20047;-65
2021/12/09 11:32:01;;;;;;;34.67;8.20;;;;;;;4.41;96.30;97896.75;5071276;28;20017;-65
2021/12/09 11:34:34;;;;;;;21.77;7.03;;;;;;;4.51;96.29;97897.53;5066256;28;20029;-65
2021/12/09 11:37:08;;;;;;;20.00;7.68;;;;;;;4.48;96.30;97885.41;5063845;28;20029;-65